createdAt,value
2018-06-13T00:01:53.402Z,1009.80
2018-06-13T00:02:53.374Z,1009.78
2018-06-13T00:04:48.357Z,1009.78
2018-06-13T00:05:47.815Z,1009.76
2018-06-13T00:07:42.293Z,1009.80
2018-06-13T00:08:42.284Z,1009.78
2018-06-13T00:10:35.720Z,1009.84
2018-06-13T00:11:35.673Z,1009.86
2018-06-13T00:13:32.140Z,1009.85
2018-06-13T00:14:31.629Z,1009.85
2018-06-13T00:16:26.089Z,1009.86
2018-06-13T00:17:25.086Z,1009.86
2018-06-13T00:19:21.050Z,1009.88
2018-06-13T00:20:21.046Z,1009.88
2018-06-13T00:22:19.992Z,1009.93
2018-06-13T00:23:20.012Z,1009.93
2018-06-13T00:25:15.116Z,1009.93
2018-06-13T00:26:13.591Z,1009.96
2018-06-13T00:28:08.558Z,1009.95
2018-06-13T00:29:08.044Z,1009.98
2018-06-13T00:31:03.004Z,1010.04
2018-06-13T00:32:02.465Z,1010.01
2018-06-13T00:33:58.901Z,1010.10
2018-06-13T00:34:58.914Z,1010.11
2018-06-13T00:36:54.387Z,1010.09
2018-06-13T00:37:54.861Z,1010.12
2018-06-13T00:39:50.279Z,1010.12
2018-06-13T00:40:50.286Z,1010.11
2018-06-13T00:42:46.264Z,1010.09
2018-06-13T00:43:46.238Z,1010.06
2018-06-13T00:45:42.171Z,1010.12
2018-06-13T00:46:43.117Z,1010.08
2018-06-13T00:48:38.144Z,1010.12
2018-06-13T00:49:38.134Z,1010.10
2018-06-13T00:51:32.616Z,1010.12
2018-06-13T00:52:32.579Z,1010.13
2018-06-13T00:54:28.557Z,1010.12
2018-06-13T00:55:28.515Z,1010.14
2018-06-13T00:57:23.978Z,1010.17
2018-06-13T00:58:22.990Z,1010.17
2018-06-13T01:00:17.445Z,1010.19
2018-06-13T01:01:17.387Z,1010.20
2018-06-13T01:03:14.350Z,1010.19
2018-06-13T01:04:13.831Z,1010.24
2018-06-13T01:06:08.285Z,1010.24
2018-06-13T01:07:07.755Z,1010.28
2018-06-13T01:09:02.203Z,1010.28
2018-06-13T01:10:02.710Z,1010.32
2018-06-13T01:11:56.645Z,1010.32
2018-06-13T01:12:56.652Z,1010.30
2018-06-13T01:14:52.634Z,1010.38
2018-06-13T01:15:52.628Z,1010.41
2018-06-13T01:17:47.103Z,1010.38
2018-06-13T01:18:47.079Z,1010.40
2018-06-13T01:20:40.547Z,1010.38
2018-06-13T01:21:40.474Z,1010.38
2018-06-13T01:23:34.955Z,1010.34
2018-06-13T01:24:34.931Z,1010.36
2018-06-13T01:26:30.900Z,1010.34
2018-06-13T01:27:30.932Z,1010.32
2018-06-13T01:29:26.835Z,1010.33
2018-06-13T01:30:25.344Z,1010.33
2018-06-13T01:32:20.290Z,1010.32
2018-06-13T01:33:19.771Z,1010.37
2018-06-13T01:35:14.253Z,1010.41
2018-06-13T01:36:14.739Z,1010.41
2018-06-13T01:38:10.188Z,1010.43
2018-06-13T01:39:10.144Z,1010.44
2018-06-13T01:41:04.575Z,1010.44
2018-06-13T01:42:04.569Z,1010.41
2018-06-13T01:44:00.541Z,1010.43
2018-06-13T01:45:00.514Z,1010.38
2018-06-13T01:46:56.491Z,1010.36
2018-06-13T01:47:56.451Z,1010.36
2018-06-13T01:49:50.426Z,1010.34
2018-06-13T01:50:50.415Z,1010.30
2018-06-13T01:52:44.376Z,1010.33
2018-06-13T01:53:44.363Z,1010.34
2018-06-13T01:55:38.837Z,1010.33
2018-06-13T01:56:38.808Z,1010.30
2018-06-13T01:58:33.249Z,1010.31
2018-06-13T01:59:33.780Z,1010.30
2018-06-13T02:01:29.734Z,1010.28
2018-06-13T02:02:29.208Z,1010.29
2018-06-13T02:04:25.143Z,1010.28
2018-06-13T02:05:25.165Z,1010.27
2018-06-13T02:07:20.103Z,1010.28
2018-06-13T02:08:19.602Z,1010.30
2018-06-13T02:10:15.574Z,1010.33
2018-06-13T02:11:15.552Z,1010.33
2018-06-13T02:13:09.515Z,1010.34
2018-06-13T02:14:09.515Z,1010.33
2018-06-13T02:16:04.991Z,1010.40
2018-06-13T02:17:04.943Z,1010.33
2018-06-13T02:19:01.399Z,1010.29
2018-06-13T02:20:00.892Z,1010.27
2018-06-13T02:21:56.856Z,1010.31
2018-06-13T02:22:56.844Z,1010.29
2018-06-13T02:24:55.289Z,1010.29
2018-06-13T02:25:55.295Z,1010.31
2018-06-13T02:27:49.274Z,1010.30
2018-06-13T02:28:49.242Z,1010.32
2018-06-13T02:30:45.193Z,1010.32
2018-06-13T02:31:45.146Z,1010.33
2018-06-13T02:33:41.100Z,1010.29
2018-06-13T02:34:41.588Z,1010.26
2018-06-13T02:36:37.033Z,1010.30
2018-06-13T02:37:37.030Z,1010.29
2018-06-13T02:39:35.499Z,1010.29
2018-06-13T02:40:34.986Z,1010.33
2018-06-13T02:42:31.948Z,1010.29
2018-06-13T02:43:30.915Z,1010.28
2018-06-13T02:45:25.381Z,1010.29
2018-06-13T02:46:25.367Z,1010.32
2018-06-13T02:48:20.326Z,1010.30
2018-06-13T02:49:19.840Z,1010.32
2018-06-13T02:51:15.714Z,1010.27
2018-06-13T02:52:15.700Z,1010.25
2018-06-13T02:54:10.679Z,1010.23
2018-06-13T02:55:11.595Z,1010.23
2018-06-13T02:57:06.606Z,1010.24
2018-06-13T02:58:06.094Z,1010.22
2018-06-13T03:00:03.044Z,1010.17
2018-06-13T03:01:03.041Z,1010.23
2018-06-13T03:02:59.510Z,1010.20
2018-06-13T03:03:58.004Z,1010.28
2018-06-13T03:05:53.965Z,1010.29
2018-06-13T03:06:53.937Z,1010.31
2018-06-13T03:08:49.893Z,1010.29
2018-06-13T03:09:49.872Z,1010.30
2018-06-13T03:11:46.324Z,1010.31
2018-06-13T03:12:45.812Z,1010.33
2018-06-13T03:14:41.805Z,1010.32
2018-06-13T03:15:41.776Z,1010.30
2018-06-13T03:17:37.716Z,1010.28
2018-06-13T03:18:38.229Z,1010.34
2018-06-13T03:20:34.681Z,1010.36
2018-06-13T03:21:33.645Z,1010.34
2018-06-13T03:23:30.624Z,1010.34
2018-06-13T03:24:29.600Z,1010.37
2018-06-13T03:26:26.054Z,1010.31
2018-06-13T03:27:25.540Z,1010.30
2018-06-13T03:29:21.515Z,1010.34
2018-06-13T03:30:21.483Z,1010.32
2018-06-13T03:32:17.446Z,1010.33
2018-06-13T03:33:17.932Z,1010.36
2018-06-13T03:35:13.381Z,1010.34
2018-06-13T03:36:13.882Z,1010.36
2018-06-13T03:38:07.863Z,1010.38
2018-06-13T03:39:07.836Z,1010.38
2018-06-13T03:41:02.851Z,1010.38
2018-06-13T03:42:02.245Z,1010.38
2018-06-13T03:43:59.700Z,1010.34
2018-06-13T03:44:58.705Z,1010.41
2018-06-13T03:46:54.164Z,1010.44
2018-06-13T03:47:54.115Z,1010.43
2018-06-13T03:49:49.076Z,1010.46
2018-06-13T03:50:48.552Z,1010.47
2018-06-13T03:52:45.519Z,1010.49
2018-06-13T03:53:44.489Z,1010.45
2018-06-13T03:55:40.950Z,1010.49
2018-06-13T03:56:40.423Z,1010.44
2018-06-13T03:58:38.375Z,1010.46
2018-06-13T03:59:36.874Z,1010.49
2018-06-13T04:01:32.341Z,1010.48
2018-06-13T04:02:32.349Z,1010.47
2018-06-13T04:04:27.305Z,1010.48
2018-06-13T04:05:27.316Z,1010.50
2018-06-13T04:07:23.242Z,1010.49
2018-06-13T04:08:22.746Z,1010.53
2018-06-13T04:10:18.705Z,1010.54
2018-06-13T04:11:18.662Z,1010.50
2018-06-13T04:13:12.122Z,1010.53
2018-06-13T04:14:12.115Z,1010.51
2018-06-13T04:16:09.065Z,1010.47
2018-06-13T04:17:08.061Z,1010.41
2018-06-13T04:19:02.532Z,1010.44
2018-06-13T04:20:02.494Z,1010.42
2018-06-13T04:21:58.459Z,1010.47
2018-06-13T04:22:58.439Z,1010.50
2018-06-13T04:24:55.901Z,1010.46
2018-06-13T04:25:54.369Z,1010.44
2018-06-13T04:27:50.331Z,1010.41
2018-06-13T04:28:50.844Z,1010.46
2018-06-13T04:30:46.256Z,1010.49
2018-06-13T04:31:46.773Z,1010.49
2018-06-13T04:33:42.710Z,1010.49
2018-06-13T04:34:42.216Z,1010.46
2018-06-13T04:36:38.675Z,1010.50
2018-06-13T04:37:39.678Z,1010.46
2018-06-13T04:39:35.119Z,1010.50
2018-06-13T04:40:34.590Z,1010.51
2018-06-13T04:42:30.048Z,1010.51
2018-06-13T04:43:30.553Z,1010.49
2018-06-13T04:45:25.007Z,1010.48
2018-06-13T04:46:25.000Z,1010.48
2018-06-13T04:48:20.954Z,1010.42
2018-06-13T04:49:20.938Z,1010.47
2018-06-13T04:51:16.882Z,1010.43
2018-06-13T04:52:16.352Z,1010.43
2018-06-13T04:54:09.797Z,1010.45
2018-06-13T04:55:09.805Z,1010.41
2018-06-13T04:57:05.766Z,1010.49
2018-06-13T04:58:05.766Z,1010.48
2018-06-13T05:00:01.753Z,1010.47
2018-06-13T05:01:02.748Z,1010.48
2018-06-13T05:02:56.216Z,1010.52
2018-06-13T05:03:56.193Z,1010.50
2018-06-13T05:05:52.678Z,1010.48
2018-06-13T05:06:52.166Z,1010.45
2018-06-13T05:08:48.096Z,1010.47
2018-06-13T05:09:48.111Z,1010.43
2018-06-13T05:11:44.985Z,1010.45
2018-06-13T05:12:44.055Z,1010.50
2018-06-13T05:14:40.024Z,1010.46
2018-06-13T05:15:40.917Z,1010.50
2018-06-13T05:17:39.949Z,1010.49
2018-06-13T05:18:38.963Z,1010.53
2018-06-13T05:20:34.930Z,1010.55
2018-06-13T05:21:34.878Z,1010.54
2018-06-13T05:23:30.327Z,1010.56
2018-06-13T05:24:29.832Z,1010.57
2018-06-13T05:26:24.265Z,1010.57
2018-06-13T05:27:23.780Z,1010.58
2018-06-13T05:29:19.215Z,1010.56
2018-06-13T05:30:18.217Z,1010.57
2018-06-13T05:32:14.150Z,1010.59
2018-06-13T05:33:14.156Z,1010.62
2018-06-13T05:35:11.609Z,1010.61
2018-06-13T05:36:10.619Z,1010.56
2018-06-13T05:38:04.588Z,1010.59
2018-06-13T05:39:04.055Z,1010.63
2018-06-13T05:40:57.964Z,1010.67
2018-06-13T05:41:58.008Z,1010.71
2018-06-13T05:43:54.007Z,1010.72
2018-06-13T05:44:53.912Z,1010.71
2018-06-13T05:46:49.378Z,1010.73
2018-06-13T05:47:50.369Z,1010.70
2018-06-13T05:49:45.337Z,1010.69
2018-06-13T05:50:44.367Z,1010.64
2018-06-13T05:52:40.795Z,1010.65
2018-06-13T05:53:40.295Z,1010.64
2018-06-13T05:55:36.785Z,1010.69
2018-06-13T05:56:36.314Z,1010.76
2018-06-13T05:58:30.739Z,1010.71
2018-06-13T05:59:30.693Z,1010.78
2018-06-13T06:01:26.727Z,1010.76
2018-06-13T06:02:27.153Z,1010.77
2018-06-13T06:04:31.120Z,1010.80
2018-06-13T06:05:31.589Z,1010.78
2018-06-13T06:07:28.082Z,1010.82
2018-06-13T06:08:27.665Z,1010.83
2018-06-13T06:10:21.036Z,1010.89
2018-06-13T06:11:20.974Z,1010.90
2018-06-13T06:13:16.941Z,1010.94
2018-06-13T06:14:16.447Z,1010.96
2018-06-13T06:16:14.400Z,1010.98
2018-06-13T06:17:14.064Z,1010.91
2018-06-13T06:19:10.540Z,1010.97
2018-06-13T06:20:10.056Z,1011.01
2018-06-13T06:22:05.964Z,1011.02
2018-06-13T06:23:06.479Z,1010.98
2018-06-13T06:25:00.927Z,1011.01
2018-06-13T06:26:00.919Z,1010.97
2018-06-13T06:27:56.877Z,1011.07
2018-06-13T06:28:56.345Z,1011.05
2018-06-13T06:30:52.257Z,1011.09
2018-06-13T06:31:52.255Z,1011.15
2018-06-13T06:33:48.248Z,1011.11
2018-06-13T06:34:49.216Z,1011.11
2018-06-13T06:36:44.715Z,1011.11
2018-06-13T06:37:45.693Z,1011.05
2018-06-13T06:39:39.635Z,1010.98
2018-06-13T06:40:39.654Z,1010.97
2018-06-13T06:42:33.133Z,1010.89
2018-06-13T06:43:33.117Z,1010.88
2018-06-13T06:45:29.096Z,1010.89
2018-06-13T06:46:30.104Z,1010.93
2018-06-13T06:48:25.090Z,1011.00
2018-06-13T06:49:25.036Z,1011.04
2018-06-13T06:51:20.998Z,1011.03
2018-06-13T06:52:20.975Z,1010.99
2018-06-13T06:54:16.974Z,1011.03
2018-06-13T06:55:17.014Z,1011.01
2018-06-13T06:57:11.386Z,1011.09
2018-06-13T06:58:11.931Z,1011.07
2018-06-13T07:00:07.385Z,1011.05
2018-06-13T07:01:07.362Z,1011.04
2018-06-13T07:03:04.337Z,1011.02
2018-06-13T07:04:03.823Z,1011.07
2018-06-13T07:05:59.281Z,1011.00
2018-06-13T07:07:00.286Z,1010.98
2018-06-13T07:08:55.276Z,1011.04
2018-06-13T07:09:55.235Z,1011.06
2018-06-13T07:11:51.171Z,1011.09
2018-06-13T07:12:51.176Z,1011.05
2018-06-13T07:14:47.152Z,1011.14
2018-06-13T07:15:47.140Z,1011.18
2018-06-13T07:17:43.069Z,1011.19
2018-06-13T07:18:43.108Z,1011.22
2018-06-13T07:20:39.065Z,1011.20
2018-06-13T07:21:39.003Z,1011.18
2018-06-13T07:23:34.974Z,1011.20
2018-06-13T07:24:35.460Z,1011.21
2018-06-13T07:26:30.925Z,1011.20
2018-06-13T07:27:30.894Z,1011.20
2018-06-13T07:29:26.864Z,1011.23
2018-06-13T07:30:27.346Z,1011.22
2018-06-13T07:32:23.322Z,1011.33
2018-06-13T07:33:23.301Z,1011.28
2018-06-13T07:35:19.273Z,1011.32
2018-06-13T07:36:18.742Z,1011.31
2018-06-13T07:38:16.214Z,1011.33
2018-06-13T07:39:15.199Z,1011.32
2018-06-13T07:41:10.628Z,1011.34
2018-06-13T07:42:10.613Z,1011.30
2018-06-13T07:44:06.585Z,1011.28
2018-06-13T07:45:07.076Z,1011.29
2018-06-13T07:47:02.517Z,1011.29
2018-06-13T07:48:02.527Z,1011.26
2018-06-13T07:49:59.989Z,1011.23
2018-06-13T07:50:58.475Z,1011.23
2018-06-13T07:52:54.447Z,1011.21
2018-06-13T07:53:54.422Z,1011.23
2018-06-13T07:55:50.383Z,1011.27
2018-06-13T07:56:47.866Z,1011.28
2018-06-13T07:58:43.798Z,1011.26
2018-06-13T07:59:43.823Z,1011.28
2018-06-13T08:01:39.783Z,1011.26
2018-06-13T08:02:39.782Z,1011.26
2018-06-13T08:04:36.237Z,1011.26
2018-06-13T08:05:35.748Z,1011.31
2018-06-13T08:07:34.247Z,1011.32
2018-06-13T08:08:33.958Z,1011.36
2018-06-13T08:10:28.285Z,1011.38
2018-06-13T08:11:28.278Z,1011.40
2018-06-13T08:13:24.247Z,1011.44
2018-06-13T08:14:23.234Z,1011.44
2018-06-13T08:16:18.704Z,1011.50
2018-06-13T08:17:18.681Z,1011.46
2018-06-13T08:19:14.619Z,1011.49
2018-06-13T08:20:15.139Z,1011.48
2018-06-13T08:22:09.096Z,1011.46
2018-06-13T08:23:09.091Z,1011.52
2018-06-13T08:25:05.046Z,1011.49
2018-06-13T08:26:05.551Z,1011.47
2018-06-13T08:28:03.428Z,1011.47
2018-06-13T08:28:59.495Z,1011.52
2018-06-13T08:30:55.478Z,1011.49
2018-06-13T08:31:55.434Z,1011.59
2018-06-13T08:33:51.402Z,1011.58
2018-06-13T08:34:51.356Z,1011.63
2018-06-13T08:36:47.348Z,1011.62
2018-06-13T08:37:47.834Z,1011.64
2018-06-13T08:39:43.281Z,1011.65
2018-06-13T08:40:43.271Z,1011.64
2018-06-13T08:42:40.237Z,1011.65
2018-06-13T08:43:39.283Z,1011.67
2018-06-13T08:45:35.738Z,1011.68
2018-06-13T08:46:35.247Z,1011.62
2018-06-13T08:48:31.229Z,1011.70
2018-06-13T08:49:31.696Z,1011.72
2018-06-13T08:51:24.670Z,1011.68
2018-06-13T08:52:24.639Z,1011.68
2018-06-13T08:54:22.115Z,1011.66
2018-06-13T08:55:21.597Z,1011.67
2018-06-13T08:57:18.556Z,1011.64
2018-06-13T08:58:17.536Z,1011.64
2018-06-13T09:00:13.995Z,1011.65
2018-06-13T09:01:13.499Z,1011.66
2018-06-13T09:03:09.500Z,1011.68
2018-06-13T09:04:10.444Z,1011.71
2018-06-13T09:06:06.429Z,1011.75
2018-06-13T09:07:05.413Z,1011.74
2018-06-13T09:09:01.387Z,1011.70
2018-06-13T09:10:01.370Z,1011.69
2018-06-13T09:11:55.848Z,1011.70
2018-06-13T09:12:55.814Z,1011.69
2018-06-13T09:14:51.840Z,1011.66
2018-06-13T09:15:51.782Z,1011.69
2018-06-13T09:17:49.228Z,1011.68
2018-06-13T09:18:47.768Z,1011.68
2018-06-13T09:20:43.737Z,1011.71
2018-06-13T09:21:43.669Z,1011.73
2018-06-13T09:23:40.140Z,1011.73
2018-06-13T09:24:39.638Z,1011.78
2018-06-13T09:26:35.645Z,1011.78
2018-06-13T09:27:35.603Z,1011.83
2018-06-13T09:29:31.581Z,1011.85
2018-06-13T09:30:31.555Z,1011.77
2018-06-13T09:32:27.606Z,1011.80
2018-06-13T09:33:27.503Z,1011.84
2018-06-13T09:35:25.391Z,1011.80
2018-06-13T09:36:23.452Z,1011.81
2018-06-13T09:38:20.429Z,1011.84
2018-06-13T09:39:19.417Z,1011.83
2018-06-13T09:41:14.875Z,1011.81
2018-06-13T09:42:14.394Z,1011.79
2018-06-13T09:44:11.309Z,1011.84
2018-06-13T09:45:10.309Z,1011.84
2018-06-13T09:47:06.900Z,1011.87
2018-06-13T09:48:05.770Z,1011.82
2018-06-13T09:50:01.827Z,1011.82
2018-06-13T09:51:02.737Z,1011.76
2018-06-13T09:52:57.711Z,1011.76
2018-06-13T09:53:58.204Z,1011.82
2018-06-13T09:55:54.701Z,1011.80
2018-06-13T09:56:53.668Z,1011.86
2018-06-13T09:58:50.628Z,1011.85
2018-06-13T09:59:49.632Z,1011.88
2018-06-13T10:01:44.146Z,1011.89
2018-06-13T10:02:44.091Z,1011.88
2018-06-13T10:04:38.607Z,1011.87
2018-06-13T10:05:38.547Z,1011.85
2018-06-13T10:07:35.516Z,1011.89
2018-06-13T10:08:34.533Z,1011.92
2018-06-13T10:10:30.952Z,1011.91
2018-06-13T10:11:31.886Z,1011.93
2018-06-13T10:13:26.357Z,1011.96
2018-06-13T10:14:26.367Z,1011.93
2018-06-13T10:16:22.823Z,1011.91
2018-06-13T10:17:22.306Z,1011.90
2018-06-13T10:19:18.778Z,1011.89
2018-06-13T10:20:18.248Z,1011.88
2018-06-13T10:22:12.760Z,1011.88
2018-06-13T10:23:12.717Z,1011.90
2018-06-13T10:25:07.666Z,1011.94
2018-06-13T10:26:07.150Z,1011.88
2018-06-13T10:28:03.118Z,1011.91
2018-06-13T10:29:04.105Z,1011.95
2018-06-13T10:31:00.068Z,1011.92
2018-06-13T10:31:59.569Z,1011.91
2018-06-13T10:33:55.519Z,1011.94
2018-06-13T10:34:54.976Z,1011.94
2018-06-13T10:36:51.935Z,1011.93
2018-06-13T10:37:50.932Z,1011.90
2018-06-13T10:39:47.442Z,1011.94
2018-06-13T10:40:46.903Z,1011.92
2018-06-13T10:42:42.882Z,1011.99
2018-06-13T10:43:43.357Z,1011.96
2018-06-13T10:45:38.830Z,1011.93
2018-06-13T10:46:38.823Z,1011.93
2018-06-13T10:48:34.750Z,1011.94
2018-06-13T10:49:35.758Z,1011.95
2018-06-13T10:51:31.717Z,1011.97
2018-06-13T10:52:31.221Z,1012.00
2018-06-13T10:54:27.185Z,1012.02
2018-06-13T10:55:28.196Z,1011.98
2018-06-13T10:57:23.647Z,1011.99
2018-06-13T10:58:22.650Z,1012.01
2018-06-13T11:00:19.120Z,1012.03
2018-06-13T11:01:18.579Z,1012.04
2018-06-13T11:03:15.030Z,1012.04
2018-06-13T11:04:14.519Z,1012.05
2018-06-13T11:06:11.473Z,1012.13
2018-06-13T11:07:10.484Z,1012.05
2018-06-13T11:09:07.446Z,1012.13
2018-06-13T11:10:06.449Z,1012.12
2018-06-13T11:12:02.950Z,1012.07
2018-06-13T11:13:03.406Z,1012.11
2018-06-13T11:14:59.878Z,1012.17
2018-06-13T11:15:58.350Z,1012.15
2018-06-13T11:17:54.337Z,1012.15
2018-06-13T11:18:54.326Z,1012.20
2018-06-13T11:20:50.254Z,1012.16
2018-06-13T11:21:50.232Z,1012.14
2018-06-13T11:23:46.165Z,1012.19
2018-06-13T11:24:46.169Z,1012.20
2018-06-13T11:26:42.144Z,1012.23
2018-06-13T11:27:42.140Z,1012.17
2018-06-13T11:29:38.085Z,1012.12
2018-06-13T11:30:38.109Z,1012.09
2018-06-13T11:32:34.545Z,1012.16
2018-06-13T11:33:35.534Z,1012.14
2018-06-13T11:35:33.025Z,1012.14
2018-06-13T11:36:32.997Z,1012.14
2018-06-13T11:38:28.651Z,1012.16
2018-06-13T11:39:28.179Z,1012.16
2018-06-13T11:41:37.606Z,1012.15
2018-06-13T11:42:35.618Z,1012.14
2018-06-13T11:44:32.078Z,1012.14
2018-06-13T11:45:31.568Z,1012.13
2018-06-13T11:47:27.554Z,1012.09
2018-06-13T11:48:27.550Z,1012.14
2018-06-13T11:50:23.990Z,1012.17
2018-06-13T11:51:25.004Z,1012.14
2018-06-13T11:53:20.429Z,1012.13
2018-06-13T11:55:35.442Z,1012.09
2018-06-13T11:56:35.449Z,1012.15
2018-06-13T11:58:33.423Z,1012.13
2018-06-13T11:59:33.409Z,1012.07
2018-06-13T12:01:29.335Z,1012.14
2018-06-13T12:02:29.351Z,1012.14
2018-06-13T12:04:25.309Z,1012.13
2018-06-13T12:05:25.315Z,1012.14
2018-06-13T12:07:21.295Z,1012.16
2018-06-13T12:08:21.238Z,1012.13
2018-06-13T12:10:19.311Z,1012.17
2018-06-13T12:11:20.213Z,1012.20
2018-06-13T12:13:16.331Z,1012.17
2018-06-13T12:16:12.249Z,1012.18
2018-06-13T12:17:11.262Z,1012.17
2018-06-13T12:19:07.692Z,1012.24
2018-06-13T12:20:07.193Z,1012.23
2018-06-13T12:22:06.147Z,1012.16
2018-06-13T12:23:04.809Z,1012.19
2018-06-13T12:25:03.297Z,1012.21
2018-06-13T12:26:03.767Z,1012.18
2018-06-13T12:27:58.931Z,1012.23
2018-06-13T12:28:58.898Z,1012.20
2018-06-13T12:30:54.814Z,1012.20
2018-06-13T12:31:56.356Z,1012.20
2018-06-13T12:33:52.948Z,1012.16
2018-06-13T12:34:53.775Z,1012.13
2018-06-13T12:36:49.418Z,1012.15
2018-06-13T12:37:49.413Z,1012.09
2018-06-13T12:39:45.382Z,1012.15
2018-06-13T12:40:44.861Z,1012.14
2018-06-13T12:42:41.363Z,1012.12
2018-06-13T12:43:40.857Z,1012.16
2018-06-13T12:45:36.780Z,1012.17
2018-06-13T12:46:37.292Z,1012.18
2018-06-13T12:48:33.744Z,1012.15
2018-06-13T12:49:33.733Z,1012.20
2018-06-13T12:51:28.703Z,1012.21
2018-06-13T12:52:28.734Z,1012.21
2018-06-13T12:54:24.664Z,1012.21
2018-06-13T12:55:24.668Z,1012.21
2018-06-13T12:57:20.634Z,1012.26
2018-06-13T12:59:36.604Z,1012.24
2018-06-13T13:00:36.585Z,1012.24
2018-06-13T13:02:32.596Z,1012.27
2018-06-13T13:03:32.599Z,1012.26
2018-06-13T13:05:28.578Z,1012.26
2018-06-13T13:06:28.557Z,1012.28
2018-06-13T13:08:24.554Z,1012.34
2018-06-13T13:09:25.017Z,1012.32
2018-06-13T13:11:20.469Z,1012.28
2018-06-13T13:12:20.504Z,1012.23
2018-06-13T13:14:16.463Z,1012.16
2018-06-13T13:15:16.429Z,1012.25
2018-06-13T13:17:15.390Z,1012.20
2018-06-13T13:18:14.402Z,1012.25
2018-06-13T13:20:10.421Z,1012.24
2018-06-13T13:21:10.372Z,1012.27
2018-06-13T13:23:08.847Z,1012.19
2018-06-13T13:24:09.343Z,1012.20
2018-06-13T13:26:04.477Z,1012.21
2018-06-13T13:27:04.499Z,1012.18
2018-06-13T13:29:00.466Z,1012.12
2018-06-13T13:30:00.451Z,1012.12
2018-06-13T13:31:56.389Z,1012.09
2018-06-13T13:32:56.399Z,1012.08
2018-06-13T13:34:55.397Z,1012.07
2018-06-13T13:37:10.330Z,1012.10
2018-06-13T13:38:10.830Z,1012.09
2018-06-13T13:40:07.304Z,1012.01
2018-06-13T13:41:06.293Z,1011.93
2018-06-13T13:43:03.287Z,1011.96
2018-06-13T13:44:03.142Z,1012.03
2018-06-13T13:46:01.654Z,1011.96
2018-06-13T13:47:01.288Z,1011.92
2018-06-13T13:49:03.231Z,1011.99
2018-06-13T13:50:02.740Z,1011.98
2018-06-13T13:51:59.796Z,1012.01
2018-06-13T13:53:00.805Z,1012.00
2018-06-13T13:54:56.768Z,1011.91
2018-06-13T13:57:11.761Z,1012.01
2018-06-13T13:58:12.765Z,1011.97
2018-06-13T14:00:11.758Z,1011.98
2018-06-13T14:01:12.703Z,1011.98
2018-06-13T14:03:08.880Z,1011.97
2018-06-13T14:04:09.385Z,1011.99
2018-06-13T14:06:04.854Z,1012.04
2018-06-13T14:07:06.381Z,1012.05
2018-06-13T14:09:01.348Z,1012.10
2018-06-13T14:10:00.800Z,1012.01
2018-06-13T14:11:57.788Z,1011.91
2018-06-13T14:12:56.770Z,1012.04
2018-06-13T14:14:53.226Z,1012.09
2018-06-13T14:15:54.245Z,1012.01
2018-06-13T14:17:50.721Z,1012.01
2018-06-13T14:18:53.619Z,1011.96
2018-06-13T14:20:49.176Z,1012.01
2018-06-13T14:21:50.684Z,1011.96
2018-06-13T14:23:46.259Z,1011.92
2018-06-13T14:24:45.266Z,1011.90
2018-06-13T14:26:41.242Z,1011.98
2018-06-13T14:27:42.216Z,1011.90
2018-06-13T14:29:37.706Z,1011.90
2018-06-13T14:30:37.674Z,1012.00
2018-06-13T14:32:33.150Z,1012.03
2018-06-13T14:33:34.163Z,1012.01
2018-06-13T14:35:30.534Z,1011.95
2018-06-13T14:36:28.614Z,1011.88
2018-06-13T14:38:24.614Z,1011.88
2018-06-13T14:39:26.073Z,1011.92
2018-06-13T14:41:23.552Z,1011.84
2018-06-13T14:42:22.713Z,1011.84
2018-06-13T14:44:18.692Z,1011.81
2018-06-13T14:45:19.189Z,1011.92
2018-06-13T14:47:14.643Z,1011.97
2018-06-13T14:48:15.144Z,1011.98
2018-06-13T14:50:11.187Z,1011.92
2018-06-13T14:52:43.673Z,1011.89
2018-06-13T14:54:45.103Z,1011.83
2018-06-13T14:55:44.085Z,1011.88
2018-06-13T14:57:39.245Z,1011.83
2018-06-13T14:58:40.721Z,1011.82
2018-06-13T15:00:36.612Z,1011.88
2018-06-13T15:01:35.198Z,1011.93
2018-06-13T15:03:31.138Z,1011.92
2018-06-13T15:04:31.121Z,1011.88
2018-06-13T15:06:29.241Z,1011.82
2018-06-13T15:07:29.254Z,1011.84
2018-06-13T15:09:26.200Z,1011.80
2018-06-13T15:10:26.214Z,1011.80
2018-06-13T15:12:21.712Z,1011.82
2018-06-13T15:13:21.267Z,1011.76
2018-06-13T15:15:20.161Z,1011.81
2018-06-13T15:16:19.666Z,1011.73
2018-06-13T15:18:19.169Z,1011.75
2018-06-13T15:19:17.300Z,1011.77
2018-06-13T15:21:13.760Z,1011.73
2018-06-13T15:22:13.755Z,1011.74
2018-06-13T15:24:09.311Z,1011.79
2018-06-13T15:25:09.213Z,1011.81
2018-06-13T15:27:07.182Z,1011.78
2018-06-13T15:28:07.699Z,1011.74
2018-06-13T15:30:05.172Z,1011.74
2018-06-13T15:31:05.800Z,1011.74
2018-06-13T15:33:03.122Z,1011.74
2018-06-13T15:34:03.584Z,1011.70
2018-06-13T15:36:02.055Z,1011.69
2018-06-13T15:37:01.062Z,1011.72
2018-06-13T15:39:10.578Z,1011.73
2018-06-13T15:40:12.941Z,1011.74
2018-06-13T15:42:17.245Z,1011.74
2018-06-13T15:44:33.194Z,1011.80
2018-06-13T15:45:34.717Z,1011.82
2018-06-13T15:47:32.689Z,1011.87
2018-06-13T15:48:33.591Z,1011.81
2018-06-13T15:50:29.348Z,1011.84
2018-06-13T15:51:29.279Z,1011.86
2018-06-13T15:53:25.269Z,1011.83
2018-06-13T15:55:43.252Z,1011.83
2018-06-13T15:56:44.702Z,1011.83
2018-06-13T15:58:53.203Z,1011.84
2018-06-13T15:59:54.165Z,1011.86
2018-06-13T16:02:21.003Z,1011.85
2018-06-13T16:04:18.965Z,1012.03
2018-06-13T16:05:16.083Z,1011.99
2018-06-13T16:07:24.416Z,1012.10
2018-06-13T16:09:40.363Z,1011.83
2018-06-13T16:11:55.340Z,1011.86
2018-06-13T16:12:55.852Z,1011.85
2018-06-13T16:14:53.306Z,1011.78
2018-06-13T16:15:54.318Z,1011.79
2018-06-13T16:17:51.289Z,1011.86
2018-06-13T16:18:52.773Z,1011.88
2018-06-13T16:20:47.227Z,1012.01
2018-06-13T16:21:48.819Z,1012.12
2018-06-13T16:23:43.303Z,1012.14
2018-06-13T16:26:01.353Z,1012.22
2018-06-13T16:27:01.369Z,1012.22
2018-06-13T16:28:57.292Z,1012.11
2018-06-13T16:29:57.837Z,1012.23
2018-06-13T16:31:53.766Z,1011.94
2018-06-13T16:32:53.263Z,1011.86
2018-06-13T16:34:47.729Z,1011.99
2018-06-13T16:35:47.794Z,1011.97
2018-06-13T16:37:45.200Z,1012.05
2018-06-13T16:38:45.202Z,1012.05
2018-06-13T16:40:40.665Z,1012.19
2018-06-13T16:41:39.670Z,1012.25
2018-06-13T16:43:38.594Z,1012.43
2018-06-13T16:44:40.079Z,1012.52
2018-06-13T16:46:33.556Z,1012.54
2018-06-13T16:47:33.549Z,1012.59
2018-06-13T16:49:29.628Z,1012.41
2018-06-13T16:50:29.503Z,1012.13
2018-06-13T16:52:25.474Z,1012.28
2018-06-13T16:53:25.554Z,1012.17
2018-06-13T16:55:21.463Z,1012.11
2018-06-13T16:56:21.458Z,1012.13
2018-06-13T16:58:17.389Z,1012.08
2018-06-13T16:59:17.912Z,1012.12
2018-06-13T17:01:15.850Z,1012.18
2018-06-13T17:02:15.319Z,1012.15
2018-06-13T17:04:13.794Z,1012.16
2018-06-13T17:05:13.448Z,1012.12
2018-06-13T17:07:11.440Z,1012.12
2018-06-13T17:08:09.467Z,1012.04
2018-06-13T17:10:05.409Z,1012.01
2018-06-13T17:11:05.434Z,1012.08
2018-06-13T17:13:04.387Z,1012.13
2018-06-13T17:14:03.907Z,1012.14
2018-06-13T17:16:01.376Z,1012.11
2018-06-13T17:17:01.363Z,1012.16
2018-06-13T17:18:59.336Z,1012.16
2018-06-13T17:19:59.335Z,1012.16
2018-06-13T17:21:57.351Z,1012.14
2018-06-13T17:22:57.303Z,1012.16
2018-06-13T17:24:55.283Z,1012.21
2018-06-13T17:25:55.279Z,1012.26
2018-06-13T17:27:53.313Z,1012.25
2018-06-13T17:28:53.259Z,1012.27
2018-06-13T17:30:52.204Z,1012.33
2018-06-13T17:31:51.172Z,1012.30
2018-06-13T17:33:49.315Z,1012.34
2018-06-13T17:34:49.309Z,1012.34
2018-06-13T17:36:45.333Z,1012.28
2018-06-13T17:37:45.289Z,1012.31
2018-06-13T17:39:44.216Z,1012.39
2018-06-13T17:40:43.726Z,1012.43
2018-06-13T17:42:41.723Z,1012.41
2018-06-13T17:43:41.182Z,1012.43
2018-06-13T17:45:37.705Z,1012.49
2018-06-13T17:46:37.149Z,1012.51
2018-06-13T17:48:33.135Z,1012.49
2018-06-13T17:49:33.109Z,1012.51
2018-06-13T17:51:29.557Z,1012.50
2018-06-13T17:52:29.065Z,1012.56
2018-06-13T17:54:25.539Z,1012.52
2018-06-13T17:55:25.531Z,1012.53
2018-06-13T17:57:20.969Z,1012.64